sensor_id;sensor_type;location;lat;lon;timestamp;pressure;altitude;pressure_sealevel;temperature;humidity
13011;BME280;6786;57.632;11.962;2023-05-23T00:02:27;100957.00;;;19.52;50.54
13011;BME280;6786;57.632;11.962;2023-05-23T00:04:56;100960.66;;;19.51;50.53
13011;BME280;6786;57.632;11.962;2023-05-23T00:07:24;100959.81;;;19.51;50.48
13011;BME280;6786;57.632;11.962;2023-05-23T00:09:54;100957.84;;;19.52;50.48
13011;BME280;6786;57.632;11.962;2023-05-23T00:12:23;100951.66;;;19.52;50.56
13011;BME280;6786;57.632;11.962;2023-05-23T00:14:51;100951.66;;;19.52;50.61
13011;BME280;6786;57.632;11.962;2023-05-23T00:17:19;100946.28;;;19.52;50.50
13011;BME280;6786;57.632;11.962;2023-05-23T00:19:51;100945.41;;;19.52;50.55
13011;BME280;6786;57.632;11.962;2023-05-23T00:22:21;100944.56;;;19.51;50.60
13011;BME280;6786;57.632;11.962;2023-05-23T00:24:51;100941.88;;;19.51;50.52
13011;BME280;6786;57.632;11.962;2023-05-23T00:27:20;100943.59;;;19.52;50.42
13011;BME280;6786;57.632;11.962;2023-05-23T00:29:49;100951.50;;;19.54;50.51
13011;BME280;6786;57.632;11.962;2023-05-23T00:32:17;100945.28;;;19.53;50.43
13011;BME280;6786;57.632;11.962;2023-05-23T00:34:45;100943.47;;;19.54;50.45
13011;BME280;6786;57.632;11.962;2023-05-23T00:37:14;100945.28;;;19.53;50.46
13011;BME280;6786;57.632;11.962;2023-05-23T00:39:42;100932.88;;;19.52;50.41
13011;BME280;6786;57.632;11.962;2023-05-23T00:42:10;100934.56;;;19.53;50.34
13011;BME280;6786;57.632;11.962;2023-05-23T00:44:40;100938.09;;;19.54;50.44
13011;BME280;6786;57.632;11.962;2023-05-23T00:47:08;100926.53;;;19.53;50.49
13011;BME280;6786;57.632;11.962;2023-05-23T00:49:39;100930.19;;;19.52;50.48
13011;BME280;6786;57.632;11.962;2023-05-23T00:52:07;100859.09;;;19.07;50.53
13011;BME280;6786;57.632;11.962;2023-05-23T00:54:38;100917.63;;;19.52;50.44
13011;BME280;6786;57.632;11.962;2023-05-23T00:57:06;100915.78;;;19.53;50.47
13011;BME280;6786;57.632;11.962;2023-05-23T00:59:35;100924.84;;;19.52;50.62
13011;BME280;6786;57.632;11.962;2023-05-23T01:02:06;100890.06;;;19.41;50.49
13011;BME280;6786;57.632;11.962;2023-05-23T01:04:35;100915.78;;;19.53;50.43
13011;BME280;6786;57.632;11.962;2023-05-23T01:07:04;100908.75;;;19.52;50.33
13011;BME280;6786;57.632;11.962;2023-05-23T01:09:32;100921.16;;;19.53;50.37
13011;BME280;6786;57.632;11.962;2023-05-23T01:12:12;100921.16;;;19.53;50.41
13011;BME280;6786;57.632;11.962;2023-05-23T01:14:46;100908.75;;;19.52;50.36
13011;BME280;6786;57.632;11.962;2023-05-23T01:17:21;100912.38;;;19.51;50.33
13011;BME280;6786;57.632;11.962;2023-05-23T01:19:58;100910.69;;;19.50;50.24
13011;BME280;6786;57.632;11.962;2023-05-23T01:22:44;100874.53;;;19.24;50.55
13011;BME280;6786;57.632;11.962;2023-05-23T01:25:27;100921.44;;;19.50;50.13
13011;BME280;6786;57.632;11.962;2023-05-23T01:28:00;100922.16;;;19.52;50.28
13011;BME280;6786;57.632;11.962;2023-05-23T01:30:31;100923.13;;;19.51;50.09
13011;BME280;6786;57.632;11.962;2023-05-23T01:33:03;100911.56;;;19.51;50.12
13011;BME280;6786;57.632;11.962;2023-05-23T01:35:32;100913.25;;;19.52;50.25
13011;BME280;6786;57.632;11.962;2023-05-23T01:38:01;100914.13;;;19.52;50.31
13011;BME280;6786;57.632;11.962;2023-05-23T01:40:29;100912.38;;;19.51;50.22
13011;BME280;6786;57.632;11.962;2023-05-23T01:42:58;100908.75;;;19.52;50.19
13011;BME280;6786;57.632;11.962;2023-05-23T01:45:28;100865.53;;;19.25;50.05
13011;BME280;6786;57.632;11.962;2023-05-23T01:47:59;100907.88;;;19.52;50.14
13011;BME280;6786;57.632;11.962;2023-05-23T01:50:30;100914.13;;;19.52;50.08
13011;BME280;6786;57.632;11.962;2023-05-23T01:52:59;100901.66;;;19.51;50.04
13011;BME280;6786;57.632;11.962;2023-05-23T01:55:29;100901.66;;;19.51;50.09
13011;BME280;6786;57.632;11.962;2023-05-23T01:57:59;100895.34;;;19.52;50.19
13011;BME280;6786;57.632;11.962;2023-05-23T02:00:28;100890.94;;;19.51;50.07
13011;BME280;6786;57.632;11.962;2023-05-23T02:02:57;100872.03;;;19.43;50.06
13011;BME280;6786;57.632;11.962;2023-05-23T02:05:25;100881.22;;;19.50;49.93
13011;BME280;6786;57.632;11.962;2023-05-23T02:07:53;100880.22;;;19.51;50.17
13011;BME280;6786;57.632;11.962;2023-05-23T02:10:22;100854.50;;;19.39;49.96
13011;BME280;6786;57.632;11.962;2023-05-23T02:12:51;100873.91;;;19.52;50.06
13011;BME280;6786;57.632;11.962;2023-05-23T02:15:20;100850.84;;;19.40;50.12
13011;BME280;6786;57.632;11.962;2023-05-23T02:17:48;100874.84;;;19.51;50.04
13011;BME280;6786;57.632;11.962;2023-05-23T02:20:17;100856.38;;;19.48;49.98
13011;BME280;6786;57.632;11.962;2023-05-23T02:22:45;100856.09;;;19.51;50.02
13011;BME280;6786;57.632;11.962;2023-05-23T02:25:14;100864.13;;;19.51;50.03
13011;BME280;6786;57.632;11.962;2023-05-23T02:27:42;100842.69;;;19.51;50.05
13011;BME280;6786;57.632;11.962;2023-05-23T02:30:11;100836.78;;;19.48;50.14
13011;BME280;6786;57.632;11.962;2023-05-23T02:32:41;100835.63;;;19.50;50.03
13011;BME280;6786;57.632;11.962;2023-05-23T02:35:10;100828.13;;;19.44;50.17
13011;BME280;6786;57.632;11.962;2023-05-23T02:37:38;100831.16;;;19.51;50.03
13011;BME280;6786;57.632;11.962;2023-05-23T02:40:09;100805.97;;;19.42;50.08
13011;BME280;6786;57.632;11.962;2023-05-23T02:42:38;100818.56;;;19.51;50.08
13011;BME280;6786;57.632;11.962;2023-05-23T02:45:07;100813.19;;;19.51;49.97
13011;BME280;6786;57.632;11.962;2023-05-23T02:47:35;100806.88;;;19.52;49.90
13011;BME280;6786;57.632;11.962;2023-05-23T02:50:06;100805.16;;;19.51;49.93
13011;BME280;6786;57.632;11.962;2023-05-23T02:52:35;100799.78;;;19.51;50.10
13011;BME280;6786;57.632;11.962;2023-05-23T02:55:06;100799.78;;;19.51;50.09
13011;BME280;6786;57.632;11.962;2023-05-23T02:57:34;100792.75;;;19.50;50.18
13011;BME280;6786;57.632;11.962;2023-05-23T03:00:06;100794.44;;;19.51;49.95
13011;BME280;6786;57.632;11.962;2023-05-23T03:02:36;100799.78;;;19.51;50.04
13011;BME280;6786;57.632;11.962;2023-05-23T03:05:06;100787.38;;;19.50;49.85
13011;BME280;6786;57.632;11.962;2023-05-23T03:07:35;100782.03;;;19.50;49.96
13011;BME280;6786;57.632;11.962;2023-05-23T03:10:04;100777.53;;;19.51;49.91
13011;BME280;6786;57.632;11.962;2023-05-23T03:12:32;100777.53;;;19.51;50.12
13011;BME280;6786;57.632;11.962;2023-05-23T03:15:01;100770.31;;;19.51;50.02
13011;BME280;6786;57.632;11.962;2023-05-23T03:17:29;100758.00;;;19.39;49.90
13011;BME280;6786;57.632;11.962;2023-05-23T03:19:57;100772.16;;;19.51;49.81
13011;BME280;6786;57.632;11.962;2023-05-23T03:22:27;100773.00;;;19.51;49.97
13011;BME280;6786;57.632;11.962;2023-05-23T03:24:57;100779.22;;;19.52;49.79
13011;BME280;6786;57.632;11.962;2023-05-23T03:27:25;100773.84;;;19.52;49.93
13011;BME280;6786;57.632;11.962;2023-05-23T03:29:53;100770.31;;;19.51;49.87
13011;BME280;6786;57.632;11.962;2023-05-23T03:32:21;100760.59;;;19.50;49.79
13011;BME280;6786;57.632;11.962;2023-05-23T03:34:49;100762.28;;;19.51;49.80
13011;BME280;6786;57.632;11.962;2023-05-23T03:37:18;100765.09;;;19.49;49.83
13011;BME280;6786;57.632;11.962;2023-05-23T03:39:48;100759.59;;;19.51;49.81
13011;BME280;6786;57.632;11.962;2023-05-23T03:42:16;100755.22;;;19.50;49.70
13011;BME280;6786;57.632;11.962;2023-05-23T03:44:45;100751.53;;;19.51;49.83
13011;BME280;6786;57.632;11.962;2023-05-23T03:47:13;100746.19;;;19.51;49.74
13011;BME280;6786;57.632;11.962;2023-05-23T03:49:41;100724.69;;;19.32;49.83
13011;BME280;6786;57.632;11.962;2023-05-23T03:52:10;100740.81;;;19.51;49.75
13011;BME280;6786;57.632;11.962;2023-05-23T03:54:39;100741.69;;;19.52;49.78
13011;BME280;6786;57.632;11.962;2023-05-23T03:57:09;100742.53;;;19.52;49.79
13011;BME280;6786;57.632;11.962;2023-05-23T03:59:37;100735.47;;;19.51;49.84
13011;BME280;6786;57.632;11.962;2023-05-23T04:02:06;100733.50;;;19.53;49.78
13011;BME280;6786;57.632;11.962;2023-05-23T04:04:34;100731.81;;;19.52;49.67
13011;BME280;6786;57.632;11.962;2023-05-23T04:07:03;100737.19;;;19.52;49.76
13011;BME280;6786;57.632;11.962;2023-05-23T04:09:31;100726.47;;;19.52;49.79
13011;BME280;6786;57.632;11.962;2023-05-23T04:11:59;100728.16;;;19.53;49.67
13011;BME280;6786;57.632;11.962;2023-05-23T04:14:29;100731.81;;;19.52;49.75
13011;BME280;6786;57.632;11.962;2023-05-23T04:16:59;100721.09;;;19.52;49.74
13011;BME280;6786;57.632;11.962;2023-05-23T04:19:28;100723.78;;;19.52;49.77
13011;BME280;6786;57.632;11.962;2023-05-23T04:21:56;100718.41;;;19.52;49.77
13011;BME280;6786;57.632;11.962;2023-05-23T04:24:25;100687.03;;;19.33;49.73
13011;BME280;6786;57.632;11.962;2023-05-23T04:26:53;100715.72;;;19.52;49.72
13011;BME280;6786;57.632;11.962;2023-05-23T04:29:22;100706.69;;;19.53;49.61
13011;BME280;6786;57.632;11.962;2023-05-23T04:31:53;100707.56;;;19.54;49.72
13011;BME280;6786;57.632;11.962;2023-05-23T04:34:21;100699.66;;;19.52;49.75
13011;BME280;6786;57.632;11.962;2023-05-23T04:36:49;100694.28;;;19.52;49.58
13011;BME280;6786;57.632;11.962;2023-05-23T04:39:19;100701.63;;;19.50;49.50
13011;BME280;6786;57.632;11.962;2023-05-23T04:41:48;100701.34;;;19.53;49.65
13011;BME280;6786;57.632;11.962;2023-05-23T04:44:16;100697.94;;;19.51;49.61
13011;BME280;6786;57.632;11.962;2023-05-23T04:46:44;100694.28;;;19.52;49.63
13011;BME280;6786;57.632;11.962;2023-05-23T04:49:14;100692.84;;;19.48;49.76
13011;BME280;6786;57.632;11.962;2023-05-23T04:51:43;100682.72;;;19.52;49.71
13011;BME280;6786;57.632;11.962;2023-05-23T04:54:12;100611.50;;;19.09;49.75
13011;BME280;6786;57.632;11.962;2023-05-23T04:56:42;100676.50;;;19.51;49.72
13011;BME280;6786;57.632;11.962;2023-05-23T04:59:10;100671.97;;;19.52;49.73
13011;BME280;6786;57.632;11.962;2023-05-23T05:01:39;100678.22;;;19.52;49.63
13011;BME280;6786;57.632;11.962;2023-05-23T05:04:07;100683.56;;;19.52;49.69
13011;BME280;6786;57.632;11.962;2023-05-23T05:06:36;100671.13;;;19.51;49.63
13011;BME280;6786;57.632;11.962;2023-05-23T05:09:05;100625.75;;;19.19;49.77
13011;BME280;6786;57.632;11.962;2023-05-23T05:11:33;100682.00;;;19.49;49.64
13011;BME280;6786;57.632;11.962;2023-05-23T05:14:01;100610.41;;;19.12;49.78
13011;BME280;6786;57.632;11.962;2023-05-23T05:16:29;100674.81;;;19.50;49.73
13011;BME280;6786;57.632;11.962;2023-05-23T05:18:58;100679.31;;;19.49;49.74
13011;BME280;6786;57.632;11.962;2023-05-23T05:21:26;100682.84;;;19.50;49.63
13011;BME280;6786;57.632;11.962;2023-05-23T05:23:56;100685.53;;;19.50;49.66
13011;BME280;6786;57.632;11.962;2023-05-23T05:26:25;100682.84;;;19.50;49.79
13011;BME280;6786;57.632;11.962;2023-05-23T05:28:54;100690.88;;;19.50;49.67
13011;BME280;6786;57.632;11.962;2023-05-23T05:31:22;100697.09;;;19.51;49.64
13011;BME280;6786;57.632;11.962;2023-05-23T05:33:51;100687.34;;;19.49;49.75
13011;BME280;6786;57.632;11.962;2023-05-23T05:36:19;100687.22;;;19.51;49.84
13011;BME280;6786;57.632;11.962;2023-05-23T05:38:48;100696.25;;;19.50;49.72
13011;BME280;6786;57.632;11.962;2023-05-23T05:41:18;100690.88;;;19.50;49.65
13011;BME280;6786;57.632;11.962;2023-05-23T05:43:46;100654.75;;;19.35;49.79
13011;BME280;6786;57.632;11.962;2023-05-23T05:46:14;100666.06;;;19.38;49.72
13011;BME280;6786;57.632;11.962;2023-05-23T05:48:43;100689.19;;;19.49;49.75
13011;BME280;6786;57.632;11.962;2023-05-23T05:51:11;100680.16;;;19.50;49.79
13011;BME280;6786;57.632;11.962;2023-05-23T05:53:39;100679.31;;;19.49;49.76
13011;BME280;6786;57.632;11.962;2023-05-23T05:56:08;100671.13;;;19.51;49.77
13011;BME280;6786;57.632;11.962;2023-05-23T05:58:37;100670.31;;;19.51;49.63
13011;BME280;6786;57.632;11.962;2023-05-23T06:01:06;100674.81;;;19.50;49.69
13011;BME280;6786;57.632;11.962;2023-05-23T06:03:34;100672.84;;;19.52;49.67
13011;BME280;6786;57.632;11.962;2023-05-23T06:06:03;100669.44;;;19.50;49.76
13011;BME280;6786;57.632;11.962;2023-05-23T06:08:31;100579.91;;;19.03;49.64
13011;BME280;6786;57.632;11.962;2023-05-23T06:11:00;100655.03;;;19.51;49.77
13011;BME280;6786;57.632;11.962;2023-05-23T06:13:28;100666.75;;;19.50;49.93
13011;BME280;6786;57.632;11.962;2023-05-23T06:15:58;100660.41;;;19.51;49.68
13011;BME280;6786;57.632;11.962;2023-05-23T06:18:26;100655.03;;;19.51;49.67
13011;BME280;6786;57.632;11.962;2023-05-23T06:20:54;100653.34;;;19.50;49.80
13011;BME280;6786;57.632;11.962;2023-05-23T06:23:23;100662.41;;;19.49;49.78
13011;BME280;6786;57.632;11.962;2023-05-23T06:25:51;100651.69;;;19.49;49.74
13011;BME280;6786;57.632;11.962;2023-05-23T06:28:19;100646.31;;;19.49;49.69
13011;BME280;6786;57.632;11.962;2023-05-23T06:30:47;100640.97;;;19.49;49.67
13011;BME280;6786;57.632;11.962;2023-05-23T06:33:17;100604.19;;;19.21;49.79
13011;BME280;6786;57.632;11.962;2023-05-23T06:35:45;100658.72;;;19.50;49.63
13011;BME280;6786;57.632;11.962;2023-05-23T06:38:14;100644.59;;;19.48;49.62
13011;BME280;6786;57.632;11.962;2023-05-23T06:40:43;100618.06;;;19.45;49.77
13011;BME280;6786;57.632;11.962;2023-05-23T06:43:12;100633.59;;;19.51;49.61
13011;BME280;6786;57.632;11.962;2023-05-23T06:45:40;100589.84;;;19.22;49.61
13011;BME280;6786;57.632;11.962;2023-05-23T06:48:08;100622.88;;;19.51;49.73
13011;BME280;6786;57.632;11.962;2023-05-23T06:50:39;100610.47;;;19.50;49.59
13011;BME280;6786;57.632;11.962;2023-05-23T06:53:08;100642.50;;;19.52;49.71
13011;BME280;6786;57.632;11.962;2023-05-23T06:55:36;100655.31;;;19.48;49.59
13011;BME280;6786;57.632;11.962;2023-05-23T06:58:05;100658.44;;;19.53;49.63
13011;BME280;6786;57.632;11.962;2023-05-23T07:00:33;100643.50;;;19.51;49.67
13011;BME280;6786;57.632;11.962;2023-05-23T07:03:01;100662.94;;;19.52;49.73
13011;BME280;6786;57.632;11.962;2023-05-23T07:05:32;100663.81;;;19.53;49.61
13011;BME280;6786;57.632;11.962;2023-05-23T07:08:07;100637.00;;;19.53;49.63
13011;BME280;6786;57.632;11.962;2023-05-23T07:10:37;100654.75;;;19.54;49.62
13011;BME280;6786;57.632;11.962;2023-05-23T07:13:08;100653.09;;;19.53;49.73
13011;BME280;6786;57.632;11.962;2023-05-23T07:15:36;100655.75;;;19.53;49.66
13011;BME280;6786;57.632;11.962;2023-05-23T07:18:05;100620.34;;;19.40;49.54
13011;BME280;6786;57.632;11.962;2023-05-23T07:20:33;100643.22;;;19.54;49.71
13011;BME280;6786;57.632;11.962;2023-05-23T07:23:01;100640.69;;;19.52;49.62
13011;BME280;6786;57.632;11.962;2023-05-23T07:25:31;100636.13;;;19.52;49.56
13011;BME280;6786;57.632;11.962;2023-05-23T07:27:59;100632.63;;;19.52;49.67
13011;BME280;6786;57.632;11.962;2023-05-23T07:30:27;100629.94;;;19.52;49.73
13011;BME280;6786;57.632;11.962;2023-05-23T07:33:00;100634.47;;;19.52;49.60
13011;BME280;6786;57.632;11.962;2023-05-23T07:35:29;100621.47;;;19.47;49.70
13011;BME280;6786;57.632;11.962;2023-05-23T07:37:57;100624.16;;;19.47;49.53
13011;BME280;6786;57.632;11.962;2023-05-23T07:40:25;100649.69;;;19.51;49.76
13011;BME280;6786;57.632;11.962;2023-05-23T07:42:55;100652.50;;;19.49;49.60
13011;BME280;6786;57.632;11.962;2023-05-23T07:45:23;100662.13;;;19.52;49.68
13011;BME280;6786;57.632;11.962;2023-05-23T07:47:53;100662.13;;;19.52;49.48
13011;BME280;6786;57.632;11.962;2023-05-23T07:50:22;100644.47;;;19.40;49.52
13011;BME280;6786;57.632;11.962;2023-05-23T07:52:50;100662.13;;;19.52;49.62
13011;BME280;6786;57.632;11.962;2023-05-23T07:55:21;100655.91;;;19.52;49.61
13011;BME280;6786;57.632;11.962;2023-05-23T07:57:52;100658.59;;;19.52;49.50
13011;BME280;6786;57.632;11.962;2023-05-23T08:00:23;100660.41;;;19.51;49.52
13011;BME280;6786;57.632;11.962;2023-05-23T08:02:54;100662.13;;;19.52;49.48
13011;BME280;6786;57.632;11.962;2023-05-23T08:05:22;100638.38;;;19.38;49.49
13011;BME280;6786;57.632;11.962;2023-05-23T08:07:50;100663.09;;;19.51;49.55
13011;BME280;6786;57.632;11.962;2023-05-23T08:10:20;100669.44;;;19.50;49.60
13011;BME280;6786;57.632;11.962;2023-05-23T08:12:48;100654.22;;;19.51;49.57
13011;BME280;6786;57.632;11.962;2023-05-23T08:15:16;100646.31;;;19.49;49.36
13011;BME280;6786;57.632;11.962;2023-05-23T08:17:50;100643.50;;;19.51;49.49
13011;BME280;6786;57.632;11.962;2023-05-23T08:20:22;100653.34;;;19.50;49.54
13011;BME280;6786;57.632;11.962;2023-05-23T08:22:57;100642.63;;;19.50;49.60
13011;BME280;6786;57.632;11.962;2023-05-23T08:25:29;100644.47;;;19.49;49.52
13011;BME280;6786;57.632;11.962;2023-05-23T08:27:58;100658.72;;;19.50;49.44
13011;BME280;6786;57.632;11.962;2023-05-23T08:30:27;100653.63;;;19.47;49.47
13011;BME280;6786;57.632;11.962;2023-05-23T08:32:59;100650.69;;;19.50;49.45
13011;BME280;6786;57.632;11.962;2023-05-23T08:35:30;100638.28;;;19.49;49.42
13011;BME280;6786;57.632;11.962;2023-05-23T08:38:01;100622.75;;;19.43;49.36
13011;BME280;6786;57.632;11.962;2023-05-23T08:40:30;100635.59;;;19.49;49.39
13011;BME280;6786;57.632;11.962;2023-05-23T08:42:59;100651.69;;;19.49;49.54
13011;BME280;6786;57.632;11.962;2023-05-23T08:45:28;100651.97;;;19.46;49.46
13011;BME280;6786;57.632;11.962;2023-05-23T08:48:00;100672.25;;;19.48;49.50
13011;BME280;6786;57.632;11.962;2023-05-23T08:50:29;100662.41;;;19.49;49.31
13011;BME280;6786;57.632;11.962;2023-05-23T08:52:58;100650.69;;;19.50;49.35
13011;BME280;6786;57.632;11.962;2023-05-23T08:55:28;100649.69;;;19.51;49.37
13011;BME280;6786;57.632;11.962;2023-05-23T08:57:57;100619.19;;;19.33;49.47
13011;BME280;6786;57.632;11.962;2023-05-23T09:00:26;100631.75;;;19.42;49.31
13011;BME280;6786;57.632;11.962;2023-05-23T09:02:56;100648.84;;;19.51;49.32
13011;BME280;6786;57.632;11.962;2023-05-23T09:05:26;100637.28;;;19.50;49.33
13011;BME280;6786;57.632;11.962;2023-05-23T09:07:55;100640.97;;;19.49;49.30
13011;BME280;6786;57.632;11.962;2023-05-23T09:10:23;100644.59;;;19.48;49.30
13011;BME280;6786;57.632;11.962;2023-05-23T09:12:55;100639.25;;;19.48;49.27
13011;BME280;6786;57.632;11.962;2023-05-23T09:15:25;100635.59;;;19.49;49.40
13011;BME280;6786;57.632;11.962;2023-05-23T09:17:58;100613.28;;;19.29;49.34
13011;BME280;6786;57.632;11.962;2023-05-23T09:20:29;100646.31;;;19.49;49.40
13011;BME280;6786;57.632;11.962;2023-05-23T09:23:00;100646.31;;;19.49;49.17
13011;BME280;6786;57.632;11.962;2023-05-23T09:25:34;100646.31;;;19.49;49.28
13011;BME280;6786;57.632;11.962;2023-05-23T09:28:04;100642.19;;;19.45;49.28
13011;BME280;6786;57.632;11.962;2023-05-23T09:30:33;100646.31;;;19.49;49.42
13011;BME280;6786;57.632;11.962;2023-05-23T09:33:01;100649.97;;;19.48;49.22
13011;BME280;6786;57.632;11.962;2023-05-23T09:35:33;100612.94;;;19.23;49.24
13011;BME280;6786;57.632;11.962;2023-05-23T09:38:01;100640.97;;;19.49;49.21
13011;BME280;6786;57.632;11.962;2023-05-23T09:40:29;100651.69;;;19.49;49.18
13011;BME280;6786;57.632;11.962;2023-05-23T09:43:02;100649.00;;;19.49;49.22
13011;BME280;6786;57.632;11.962;2023-05-23T09:45:32;100641.91;;;19.48;49.18
13011;BME280;6786;57.632;11.962;2023-05-23T09:48:00;100629.34;;;19.39;49.09
13011;BME280;6786;57.632;11.962;2023-05-23T09:50:31;100646.31;;;19.49;49.25
13011;BME280;6786;57.632;11.962;2023-05-23T09:53:03;100645.72;;;19.36;49.33
13011;BME280;6786;57.632;11.962;2023-05-23T09:55:32;100660.69;;;19.48;49.30
13011;BME280;6786;57.632;11.962;2023-05-23T09:58:02;100662.41;;;19.49;49.12
13011;BME280;6786;57.632;11.962;2023-05-23T10:00:31;100654.50;;;19.48;49.15
13011;BME280;6786;57.632;11.962;2023-05-23T10:03:09;100654.34;;;19.49;49.20
13011;BME280;6786;57.632;11.962;2023-05-23T10:05:43;100659.72;;;19.49;49.41
13011;BME280;6786;57.632;11.962;2023-05-23T10:08:20;100644.88;;;19.45;49.29
13011;BME280;6786;57.632;11.962;2023-05-23T10:14:02;100663.38;;;19.48;49.12
13011;BME280;6786;57.632;11.962;2023-05-23T10:16:38;100667.91;;;19.48;49.14
13011;BME280;6786;57.632;11.962;2023-05-23T10:19:14;100652.22;;;19.43;49.15
13011;BME280;6786;57.632;11.962;2023-05-23T10:21:49;100664.38;;;19.47;49.14
13011;BME280;6786;57.632;11.962;2023-05-23T10:24:20;100669.72;;;19.47;49.19
13011;BME280;6786;57.632;11.962;2023-05-23T10:26:49;100664.38;;;19.47;49.22
13011;BME280;6786;57.632;11.962;2023-05-23T10:29:18;100672.25;;;19.48;49.22
13011;BME280;6786;57.632;11.962;2023-05-23T10:31:47;100664.63;;;19.44;49.16
13011;BME280;6786;57.632;11.962;2023-05-23T10:34:23;100677.63;;;19.48;49.27
13011;BME280;6786;57.632;11.962;2023-05-23T10:36:59;100671.41;;;19.48;49.27
13011;BME280;6786;57.632;11.962;2023-05-23T10:39:41;100666.03;;;19.48;49.31
13011;BME280;6786;57.632;11.962;2023-05-23T10:42:16;100655.59;;;19.45;49.32
13011;BME280;6786;57.632;11.962;2023-05-23T10:44:46;100656.47;;;19.45;49.43
13011;BME280;6786;57.632;11.962;2023-05-23T10:47:24;100659.00;;;19.47;49.26
13011;BME280;6786;57.632;11.962;2023-05-23T10:49:54;100655.31;;;19.48;49.29
13011;BME280;6786;57.632;11.962;2023-05-23T10:52:23;100647.28;;;19.48;49.27
13011;BME280;6786;57.632;11.962;2023-05-23T10:54:54;100645.59;;;19.47;49.40
13011;BME280;6786;57.632;11.962;2023-05-23T10:57:25;100632.19;;;19.47;49.48
13011;BME280;6786;57.632;11.962;2023-05-23T10:59:54;100613.56;;;19.36;49.43
13011;BME280;6786;57.632;11.962;2023-05-23T11:02:25;100625.13;;;19.36;49.50
13011;BME280;6786;57.632;11.962;2023-05-23T11:05:21;100637.84;;;19.44;49.68
13011;BME280;6786;57.632;11.962;2023-05-23T11:08:06;100601.09;;;19.16;49.54
13011;BME280;6786;57.632;11.962;2023-05-23T11:10:57;100662.41;;;19.49;49.84
13011;BME280;6786;57.632;11.962;2023-05-23T11:13:55;100666.03;;;19.48;49.87
13011;BME280;6786;57.632;11.962;2023-05-23T11:16:27;100635.81;;;19.27;49.52
13011;BME280;6786;57.632;11.962;2023-05-23T11:19:21;100665.22;;;19.48;49.84
13011;BME280;6786;57.632;11.962;2023-05-23T11:21:57;100658.13;;;19.46;49.74
13011;BME280;6786;57.632;11.962;2023-05-23T11:24:48;100651.97;;;19.46;50.02
13011;BME280;6786;57.632;11.962;2023-05-23T11:27:25;100657.31;;;19.46;49.82
13011;BME280;6786;57.632;11.962;2023-05-23T11:30:05;100662.69;;;19.46;49.81
13011;BME280;6786;57.632;11.962;2023-05-23T11:32:34;100665.34;;;19.46;49.77
13011;BME280;6786;57.632;11.962;2023-05-23T11:35:05;100664.38;;;19.47;49.75
13011;BME280;6786;57.632;11.962;2023-05-23T11:37:34;100658.13;;;19.46;49.81
13011;BME280;6786;57.632;11.962;2023-05-23T11:40:24;100664.38;;;19.47;50.23
13011;BME280;6786;57.632;11.962;2023-05-23T11:42:54;100613.78;;;19.14;49.93
13011;BME280;6786;57.632;11.962;2023-05-23T11:45:24;100683.97;;;19.48;49.92
13011;BME280;6786;57.632;11.962;2023-05-23T11:47:52;100650.19;;;19.26;49.93
13011;BME280;6786;57.632;11.962;2023-05-23T11:50:21;100682.13;;;19.48;50.07
13011;BME280;6786;57.632;11.962;2023-05-23T11:52:51;100675.94;;;19.48;50.12
13011;BME280;6786;57.632;11.962;2023-05-23T11:55:21;100678.75;;;19.46;50.08
13011;BME280;6786;57.632;11.962;2023-05-23T11:57:50;100671.41;;;19.48;50.10
13011;BME280;6786;57.632;11.962;2023-05-23T12:00:20;100671.41;;;19.48;50.10
13011;BME280;6786;57.632;11.962;2023-05-23T12:02:48;100670.56;;;19.48;50.15
13011;BME280;6786;57.632;11.962;2023-05-23T12:05:17;100670.56;;;19.48;50.20
13011;BME280;6786;57.632;11.962;2023-05-23T12:07:47;100670.44;;;19.49;50.22
13011;BME280;6786;57.632;11.962;2023-05-23T12:10:16;100654.47;;;19.38;50.16
13011;BME280;6786;57.632;11.962;2023-05-23T12:12:46;100672.25;;;19.48;50.15
13011;BME280;6786;57.632;11.962;2023-05-23T12:15:14;100679.31;;;19.49;50.20
13011;BME280;6786;57.632;11.962;2023-05-23T12:17:46;100678.47;;;19.49;50.27
13011;BME280;6786;57.632;11.962;2023-05-23T12:20:19;100673.13;;;19.49;50.21
13011;BME280;6786;57.632;11.962;2023-05-23T12:22:48;100678.47;;;19.49;50.28
13011;BME280;6786;57.632;11.962;2023-05-23T12:25:16;100678.47;;;19.49;50.30
13011;BME280;6786;57.632;11.962;2023-05-23T12:27:47;100675.81;;;19.49;50.35
13011;BME280;6786;57.632;11.962;2023-05-23T12:30:16;100639.47;;;19.26;50.39
13011;BME280;6786;57.632;11.962;2023-05-23T12:32:45;100640.09;;;19.29;50.31
13011;BME280;6786;57.632;11.962;2023-05-23T12:35:14;100671.41;;;19.48;50.42
13011;BME280;6786;57.632;11.962;2023-05-23T12:37:43;100666.91;;;19.48;50.49
13011;BME280;6786;57.632;11.962;2023-05-23T12:40:13;100671.41;;;19.48;50.52
13011;BME280;6786;57.632;11.962;2023-05-23T12:42:55;100625.34;;;19.24;50.82
13011;BME280;6786;57.632;11.962;2023-05-23T12:45:31;100660.69;;;19.48;50.59
13011;BME280;6786;57.632;11.962;2023-05-23T12:48:01;100664.22;;;19.48;50.62
13011;BME280;6786;57.632;11.962;2023-05-23T12:50:29;100649.41;;;19.44;50.71
13011;BME280;6786;57.632;11.962;2023-05-23T12:52:58;100655.31;;;19.48;50.75
13011;BME280;6786;57.632;11.962;2023-05-23T12:55:26;100650.81;;;19.48;50.71
13011;BME280;6786;57.632;11.962;2023-05-23T12:57:55;100650.81;;;19.48;50.73
13011;BME280;6786;57.632;11.962;2023-05-23T13:00:26;100652.50;;;19.49;50.75
13011;BME280;6786;57.632;11.962;2023-05-23T13:02:54;100643.63;;;19.49;50.67
13011;BME280;6786;57.632;11.962;2023-05-23T13:05:25;100649.00;;;19.49;50.61
13011;BME280;6786;57.632;11.962;2023-05-23T13:07:53;100646.31;;;19.49;50.84
13011;BME280;6786;57.632;11.962;2023-05-23T13:10:23;100651.69;;;19.49;50.67